Terminal Aerodrome Forecast
Issued by NWS

Current Version | Previous Version | Text Only | Print | Product List | Glossary On
Versions: 1 2 3 4 5 6 7 8 9 10 11 12 13 14 15 16 17 18 19 20 21 22 23 24 25 26 27 28 29
609
FTUS42 KFFC 280828 AAB
TAFPDK
TAF AMD
KPDK 280828Z 2808/2906 22008KT P6SM VCSH SCT040 BKN100
      TEMPO 2808/2812 5SM -TSRA BKN025CB
     FM281300 26004KT P6SM BKN012
      TEMPO 2813/2815 6SM BR OVC008
     FM281700 26010KT P6SM BKN045 PROB30 2817/2821 5SM TSRA BKN035CB
     FM282200 28008KT P6SM SCT050=

USA.gov is the U.S. government's official web portal to all federal, state and local government web resources and services.